Time;durP1;ratioP1;P1;durP2;ratioP2;P2;SDS_P1;SDS_P2;PMS_P1;PMS_P2;Temp;Humidity;BMP_temperature;BMP_pressure;BME280_temperature;BME280_humidity;BME280_pressure;Samples;Min_cycle;Max_cycle;Signal;HPM_P1;HPM_P2
2023/01/18 00:01:47;;;;;;;;;17.75;17.25;;;;;6.41;49.43;98759.59;5078154;28;45352;-59
2023/01/18 00:04:12;;;;;;;;;22.75;21.50;;;;;6.33;49.89;98748.88;5059894;28;45608;-58
2023/01/18 00:06:38;;;;;;;;;35.00;22.25;;;;;6.40;49.68;98771.97;5047960;28;45719;-60
2023/01/18 00:09:03;;;;;;;;;28.25;21.25;;;;;6.34;49.62;98782.50;5071682;28;45333;-61
2023/01/18 00:11:28;;;;;;;;;28.25;20.25;;;;;6.26;49.60;98765.63;5073377;27;45485;-58
2023/01/18 00:13:54;;;;;;;;;31.75;18.75;;;;;6.15;50.15;98754.88;5088525;27;45244;-58
2023/01/18 00:16:20;;;;;;;;;29.50;24.00;;;;;6.30;50.39;98782.44;5097143;27;45184;-58
2023/01/18 00:18:51;;;;;;;;;25.25;18.75;;;;;6.24;49.92;98786.81;5096761;27;45358;-59
2023/01/18 00:21:16;;;;;;;;;23.00;20.50;;;;;5.96;50.00;98731.66;5098022;27;45621;-59
2023/01/18 00:23:42;;;;;;;;;23.50;20.00;;;;;6.22;50.69;98783.25;5098892;27;45920;-60
2023/01/18 00:26:09;;;;;;;;;60.75;43.75;;;;;6.23;50.26;98779.72;5095692;27;45385;-58
2023/01/18 00:28:36;;;;;;;;;28.50;25.25;;;;;6.23;50.97;98782.38;5098162;27;45445;-59
2023/01/18 00:31:01;;;;;;;;;20.00;17.25;;;;;6.25;50.82;98783.31;5097158;27;45406;-58
2023/01/18 00:33:26;;;;;;;;;20.00;16.00;;;;;6.26;50.55;98797.44;5097656;27;45857;-58
2023/01/18 00:36:01;;;;;;;;;20.50;16.50;;;;;6.14;50.68;98794.63;5097515;27;45508;-58
2023/01/18 00:38:27;;;;;;;;;30.00;21.50;;;;;6.08;50.98;98795.44;5096951;27;46757;-58
2023/01/18 00:40:53;;;;;;;;;29.00;22.00;;;;;6.03;51.02;98790.06;5095311;27;45284;-60
2023/01/18 00:46:13;;;;;;;;;16.25;16.25;;;;;6.12;51.21;98813.19;5085602;27;45273;-59
2023/01/18 00:48:40;;;;;;;;;19.75;13.75;;;;;6.10;51.51;98809.59;5094864;27;46606;-59
2023/01/18 00:51:07;;;;;;;;;16.50;15.00;;;;;6.07;51.48;98814.84;5095976;27;45523;-58
2023/01/18 00:53:32;;;;;;;;;21.50;16.25;;;;;5.89;51.83;98795.19;5096938;27;45520;-58
2023/01/18 00:55:58;;;;;;;;;19.25;17.00;;;;;5.95;52.06;98820.84;5097300;27;45395;-59
2023/01/18 00:58:23;;;;;;;;;20.00;16.00;;;;;5.88;51.75;98816.34;5076238;27;51531;-59
2023/01/18 01:00:52;;;;;;;;;25.25;16.75;;;;;5.82;51.82;98800.34;5095736;27;45446;-59
2023/01/18 01:03:21;;;;;;;;;21.75;17.25;;;;;6.00;51.93;98835.09;5095388;27;45472;-60
2023/01/18 01:08:31;;;;;;;;;22.00;20.00;;;;;5.95;51.57;98836.75;5097289;27;45377;-59
2023/01/18 01:11:10;;;;;;;;;20.50;20.50;;;;;5.96;52.52;98837.66;5103596;27;45425;-59
2023/01/18 01:27:19;;;;;;;;;22.75;18.25;;;;;5.83;52.22;98837.47;5096221;27;45471;-59
2023/01/18 01:29:44;;;;;;;;;20.75;19.00;;;;;5.96;52.34;98859.78;5093844;27;45488;-57
2023/01/18 01:32:10;;;;;;;;;22.00;17.25;;;;;5.96;52.81;98865.09;5097247;27;45465;-59
2023/01/18 01:34:35;;;;;;;;;21.00;16.25;;;;;5.98;52.14;98871.31;5096964;27;45302;-59
2023/01/18 01:37:01;;;;;;;;;18.50;18.50;;;;;6.01;52.60;98867.81;5097113;27;45398;-59
2023/01/18 01:39:27;;;;;;;;;13.00;10.50;;;;;5.60;52.12;98807.13;5095905;27;45283;-59
2023/01/18 01:41:53;;;;;;;;;21.50;18.50;;;;;5.80;52.41;98863.94;5095791;27;45225;-59
2023/01/18 01:44:18;;;;;;;;;16.00;14.00;;;;;5.87;52.39;98879.06;5095389;27;45318;-59
2023/01/18 01:46:47;;;;;;;;;19.50;15.00;;;;;5.82;52.58;98880.75;5094222;27;45487;-58
2023/01/18 01:49:27;;;;;;;;;23.25;14.75;;;;;5.60;52.63;98838.91;5075275;27;47265;-58
2023/01/18 01:51:57;;;;;;;;;21.75;19.00;;;;;5.83;52.45;98892.25;5095841;27;45424;-59
2023/01/18 01:54:28;;;;;;;;;20.75;16.00;;;;;5.81;52.33;98897.53;5101861;27;45300;-59
2023/01/18 01:57:16;;;;;;;;;22.25;15.75;;;;;5.83;52.59;98894.91;5097618;27;45572;-58
2023/01/18 01:59:51;;;;;;;;;18.25;16.75;;;;;5.86;52.38;98898.47;5096496;27;46110;-60
2023/01/18 02:02:17;;;;;;;;;21.00;17.00;;;;;5.87;52.72;98886.13;5099194;27;45603;-59
2023/01/18 02:04:45;;;;;;;;;20.00;18.75;;;;;5.90;52.42;98896.78;5101874;27;45442;-59
2023/01/18 02:07:11;;;;;;;;;22.75;15.25;;;;;5.90;52.96;98902.94;5083571;27;45332;-58
2023/01/18 02:09:37;;;;;;;;;20.50;16.50;;;;;5.88;53.00;98907.34;5099303;27;45470;-60
2023/01/18 02:12:03;;;;;;;;;19.50;17.25;;;;;4.98;52.35;98751.47;5095890;27;45524;-59
2023/01/18 02:14:29;;;;;;;;;21.25;19.25;;;;;5.88;52.44;98902.03;5062454;27;45540;-59
2023/01/18 02:17:36;;;;;;;;;19.50;14.00;;;;;5.84;52.47;98910.84;5073337;27;45547;-60
2023/01/18 02:20:36;;;;;;;;;17.00;13.00;;;;;5.82;53.08;98911.66;5073734;28;46054;-58
2023/01/18 02:23:29;;;;;;;;;18.75;16.50;;;;;5.84;52.50;98907.25;5058459;28;45474;-60
2023/01/18 02:26:33;;;;;;;;;21.50;15.25;;;;;5.81;52.75;98912.53;5073834;27;45267;-58
2023/01/18 02:29:18;;;;;;;;;16.00;11.75;;;;;5.74;52.91;98919.47;5076975;27;45476;-61
2023/01/18 02:32:21;;;;;;;;;14.00;13.50;;;;;5.73;52.50;98923.91;5055714;28;46270;-60
2023/01/18 02:34:54;;;;;;;;;15.00;9.00;;;;;5.73;51.94;98926.53;5064094;27;45593;-59
2023/01/18 02:37:42;;;;;;;;;18.50;9.75;;;;;5.72;52.37;98926.50;5078749;27;45361;-59
2023/01/18 02:40:13;;;;;;;;;13.50;11.50;;;;;5.75;52.75;98933.63;5071252;27;45643;-60
2023/01/18 02:48:29;;;;;;;;;11.25;10.75;;;;;5.72;51.99;98927.44;5074704;27;45464;-58
2023/01/18 02:50:54;;;;;;;;;12.25;12.25;;;;;5.78;51.38;98937.22;5071476;27;45550;-59
2023/01/18 02:53:19;;;;;;;;;15.50;14.25;;;;;5.58;52.14;98902.47;5061431;27;46329;-60
2023/01/18 02:55:55;;;;;;;;;11.25;10.00;;;;;5.71;52.18;98927.41;5074057;27;45385;-58
2023/01/18 02:58:29;;;;;;;;;11.00;9.75;;;;;5.81;51.68;98947.88;5055896;27;45486;-60
2023/01/18 03:01:00;;;;;;;;;13.75;11.00;;;;;5.88;51.68;98946.22;5074978;27;45540;-58
2023/01/18 03:03:27;;;;;;;;;12.00;9.75;;;;;5.90;51.92;98955.06;5069519;28;46424;-60
2023/01/18 03:05:57;;;;;;;;;14.25;13.00;;;;;5.81;52.28;98949.66;5067423;28;45389;-59
2023/01/18 03:08:43;;;;;;;;;13.25;12.75;;;;;5.90;51.64;98961.25;5079321;27;45536;-59
2023/01/18 03:11:21;;;;;;;;;14.25;12.25;;;;;5.89;51.91;98959.50;5076348;28;45453;-59
2023/01/18 03:13:59;;;;;;;;;13.00;12.75;;;;;5.86;51.68;98963.84;5075408;28;46181;-58
2023/01/18 03:16:38;;;;;;;;;13.00;9.75;;;;;5.71;51.50;98951.25;5060629;27;45679;-59
2023/01/18 03:21:56;;;;;;;;;13.75;11.25;;;;;5.82;51.63;98975.25;5058395;28;45430;-58
2023/01/18 03:24:22;;;;;;;;;18.50;13.00;;;;;5.64;52.24;98954.63;5057188;28;46544;-58
2023/01/18 03:26:52;;;;;;;;;12.25;12.25;;;;;5.83;52.03;98985.00;5080402;27;45528;-58
2023/01/18 03:35:06;;;;;;;;;12.50;9.25;;;;;5.65;52.45;98982.94;5067901;27;45864;-59
2023/01/18 03:37:37;;;;;;;;;17.75;14.00;;;;;5.65;52.12;98975.84;5075755;27;45822;-58
2023/01/18 03:40:08;;;;;;;;;15.00;13.50;;;;;5.77;52.50;98982.25;5075244;27;45527;-58
2023/01/18 03:42:42;;;;;;;;;13.50;12.25;;;;;5.63;52.71;98974.94;5071744;27;45597;-59
2023/01/18 03:45:28;;;;;;;;;11.00;11.00;;;;;5.71;53.12;98994.53;5085571;27;45790;-59
2023/01/18 03:47:54;;;;;;;;;14.25;11.25;;;;;5.71;52.75;99005.13;5074567;27;45363;-60
2023/01/18 03:50:28;;;;;;;;;21.75;17.50;;;;;5.36;52.36;98956.78;5077540;27;45376;-59
2023/01/18 03:52:57;;;;;;;;;14.00;13.50;;;;;5.65;53.39;99010.31;5064700;28;45449;-59
2023/01/18 03:55:31;;;;;;;;;17.25;15.75;;;;;5.70;53.48;99026.28;5075517;27;46563;-59
2023/01/18 03:58:08;;;;;;;;;19.25;18.25;;;;;5.66;53.17;99027.09;5071594;27;45586;-59
2023/01/18 04:00:33;;;;;;;;;16.00;15.75;;;;;5.54;53.69;99020.72;5061755;28;45569;-58
2023/01/18 04:02:59;;;;;;;;;18.75;16.25;;;;;5.59;53.39;99041.09;5057035;27;45353;-59
2023/01/18 04:05:24;;;;;;;;;20.00;19.25;;;;;5.56;53.72;99047.25;5079063;27;45475;-59
2023/01/18 04:07:50;;;;;;;;;24.25;19.00;;;;;5.48;53.46;99043.56;5067632;27;45433;-58
2023/01/18 04:10:15;;;;;;;;;22.50;19.75;;;;;5.45;53.90;99051.44;5074486;27;45482;-58
2023/01/18 04:12:40;;;;;;;;;19.00;16.50;;;;;5.37;54.24;99056.56;5081454;27;45233;-58
2023/01/18 04:15:06;;;;;;;;;19.00;17.00;;;;;5.32;54.34;99051.19;5095415;27;45338;-59
2023/01/18 04:17:32;;;;;;;;;15.75;14.75;;;;;5.13;54.29;99033.13;5094742;27;45471;-59
2023/01/18 04:19:57;;;;;;;;;26.25;21.75;;;;;5.11;54.49;99048.09;5095986;27;45276;-59
2023/01/18 04:22:22;;;;;;;;;19.25;19.00;;;;;5.06;54.62;99048.00;5095648;27;50914;-58
2023/01/18 04:24:48;;;;;;;;;21.25;19.25;;;;;5.15;54.86;99071.13;5080073;27;46284;-60
2023/01/18 04:27:13;;;;;;;;;21.00;18.75;;;;;5.14;54.43;99066.69;5084030;27;51143;-58
2023/01/18 04:29:38;;;;;;;;;18.00;15.75;;;;;5.12;54.17;99077.25;5088247;27;45312;-59
2023/01/18 04:32:04;;;;;;;;;20.00;16.00;;;;;5.02;54.45;99067.34;5093767;27;45211;-63
2023/01/18 04:34:31;;;;;;;;;19.50;18.25;;;;;5.06;54.51;99073.59;5089773;27;45500;-59
2023/01/18 04:36:58;;;;;;;;;22.75;19.25;;;;;5.10;55.49;99081.63;5089099;27;46573;-59
2023/01/18 04:39:24;;;;;;;;;21.75;16.00;;;;;4.90;54.73;99032.66;5096722;27;45381;-59
2023/01/18 04:41:49;;;;;;;;;17.25;14.50;;;;;4.92;54.33;99041.53;5096046;27;45396;-59
2023/01/18 04:44:15;;;;;;;;;34.25;17.75;;;;;5.21;54.97;99091.53;5097515;27;46513;-58
2023/01/18 04:46:41;;;;;;;;;12.25;10.25;;;;;5.19;53.99;99094.16;5099247;27;45524;-59
2023/01/18 04:49:12;;;;;;;;;18.50;14.50;;;;;5.20;54.22;99101.25;5076161;27;45815;-58
2023/01/18 04:51:37;;;;;;;;;21.25;19.25;;;;;5.24;54.28;99091.59;5096161;27;45523;-59
2023/01/18 04:54:03;;;;;;;;;22.00;20.50;;;;;5.27;53.94;99097.84;5094966;27;46200;-59
2023/01/18 04:56:28;;;;;;;;;21.00;17.50;;;;;4.99;53.47;99051.38;5094203;27;45461;-59
2023/01/18 04:58:54;;;;;;;;;19.75;17.50;;;;;5.20;54.15;99100.34;5089693;27;45664;-59
2023/01/18 05:01:20;;;;;;;;;24.25;19.25;;;;;5.21;54.37;99099.47;5077380;27;45347;-59
2023/01/18 05:03:45;;;;;;;;;18.75;16.00;;;;;5.27;54.31;99104.91;5086825;27;45476;-61
2023/01/18 05:06:12;;;;;;;;;19.75;17.50;;;;;5.20;53.82;99082.72;5087395;27;45530;-59
2023/01/18 05:08:39;;;;;;;;;21.50;14.50;;;;;5.28;53.78;99104.03;5088458;27;45328;-59
2023/01/18 05:11:07;;;;;;;;;19.25;16.25;;;;;5.27;54.00;99096.97;5076790;27;45733;-59
2023/01/18 05:13:33;;;;;;;;;16.50;14.00;;;;;5.30;53.79;99112.94;5056305;27;1131140;-57
2023/01/18 05:16:00;;;;;;;;;27.50;20.00;;;;;5.25;53.75;99114.59;5098438;27;45480;-61
2023/01/18 05:18:26;;;;;;;;;19.50;15.50;;;;;5.15;53.84;99102.91;5099541;27;45543;-59
2023/01/18 05:20:51;;;;;;;;;17.50;14.25;;;;;5.20;54.20;99119.78;5099684;27;45503;-59
2023/01/18 05:23:17;;;;;;;;;18.50;15.00;;;;;5.25;53.64;99123.41;5083647;27;46072;-58
2023/01/18 05:25:43;;;;;;;;;15.00;12.50;;;;;5.27;54.29;99134.03;5098716;27;45382;-59
2023/01/18 05:28:09;;;;;;;;;20.00;15.50;;;;;5.25;54.01;99131.38;5077728;27;45395;-60
2023/01/18 05:30:40;;;;;;;;;18.25;14.50;;;;;5.27;53.71;99128.75;5100226;27;45543;-59
2023/01/18 05:33:05;;;;;;;;;17.00;15.25;;;;;5.27;53.74;99134.94;5097076;27;45425;-59
2023/01/18 05:35:31;;;;;;;;;14.75;14.75;;;;;5.30;53.51;99128.81;5078825;27;45454;-59
2023/01/18 05:37:57;;;;;;;;;21.25;20.00;;;;;5.04;53.36;99091.19;5096767;27;45380;-60
2023/01/18 05:40:22;;;;;;;;;18.00;13.00;;;;;5.31;53.47;99142.09;5098150;27;45404;-59
2023/01/18 05:42:48;;;;;;;;;21.00;15.75;;;;;5.22;53.94;99133.94;5097121;27;45612;-60
2023/01/18 05:45:13;;;;;;;;;13.00;12.00;;;;;5.30;53.79;99160.59;5097889;27;45515;-60
2023/01/18 05:47:40;;;;;;;;;14.75;13.75;;;;;5.17;53.53;99151.47;5094209;27;45595;-59
2023/01/18 05:50:06;;;;;;;;;18.00;14.25;;;;;5.17;53.61;99147.06;5097480;27;45777;-60
2023/01/18 05:52:32;;;;;;;;;19.75;12.75;;;;;5.30;53.59;99164.13;5095681;27;46146;-60
2023/01/18 05:54:57;;;;;;;;;20.00;18.00;;;;;5.34;53.92;99173.03;5090081;27;45463;-58
2023/01/18 05:57:23;;;;;;;;;11.00;9.75;;;;;5.27;53.77;99163.16;5092214;27;45699;-60
2023/01/18 05:59:48;;;;;;;;;16.00;13.25;;;;;5.33;53.46;99171.25;5096075;27;45429;-59
2023/01/18 06:02:13;;;;;;;;;21.25;16.00;;;;;5.26;53.42;99180.81;5095182;27;65676;-60
2023/01/18 06:04:39;;;;;;;;;24.50;16.00;;;;;5.12;54.40;99169.00;5089208;27;45460;-60
2023/01/18 06:07:04;;;;;;;;;19.75;18.50;;;;;5.06;54.14;99176.81;5095000;27;45491;-60
2023/01/18 06:09:29;;;;;;;;;19.50;16.25;;;;;4.99;55.24;99184.59;5095152;27;45628;-59
2023/01/18 06:11:55;;;;;;;;;18.75;15.00;;;;;4.78;55.05;99170.88;5096706;27;58687;-59
2023/01/18 06:14:20;;;;;;;;;19.25;13.00;;;;;4.77;56.07;99182.31;5097784;27;45330;-59
2023/01/18 06:16:47;;;;;;;;;16.00;16.00;;;;;4.83;55.28;99200.97;5093977;27;45560;-58
2023/01/18 06:19:12;;;;;;;;;24.75;23.25;;;;;4.85;56.43;99201.94;5092714;27;45454;-59
2023/01/18 06:21:37;;;;;;;;;49.50;34.50;;;;;4.74;56.19;99172.53;5074832;27;47295;-59
2023/01/18 06:24:03;;;;;;;;;22.00;18.50;;;;;4.98;55.94;99217.25;5094491;27;46319;-60
2023/01/18 06:26:30;;;;;;;;;22.25;19.50;;;;;4.89;55.09;99224.06;5094707;27;45314;-59
2023/01/18 06:28:56;;;;;;;;;20.50;16.75;;;;;4.80;55.07;99222.06;5095465;27;45667;-60
2023/01/18 06:31:22;;;;;;;;;23.50;18.25;;;;;4.66;56.13;99221.72;5093067;27;45471;-59
2023/01/18 06:33:47;;;;;;;;;19.75;18.50;;;;;4.72;56.98;99235.13;5094756;27;45397;-63
2023/01/18 06:36:13;;;;;;;;;20.50;20.50;;;;;4.76;55.99;99236.09;5092998;27;45603;-59
2023/01/18 06:38:39;;;;;;;;;23.00;20.00;;;;;4.75;56.64;99235.19;5095605;27;45674;-60
2023/01/18 06:41:04;;;;;;;;;18.25;18.25;;;;;4.75;56.27;99240.50;5098938;27;45443;-60
2023/01/18 06:43:30;;;;;;;;;27.75;18.75;;;;;4.77;56.47;99243.19;5095647;27;51646;-60
2023/01/18 06:45:56;;;;;;;;;19.00;16.25;;;;;4.88;56.00;99261.94;5072242;27;45447;-60
2023/01/18 06:48:25;;;;;;;;;23.00;22.00;;;;;4.94;55.81;99263.00;5086491;27;45674;-60
2023/01/18 06:50:52;;;;;;;;;24.75;21.00;;;;;4.97;54.94;99264.84;5094647;27;46387;-59
2023/01/18 06:53:19;;;;;;;;;26.25;19.50;;;;;5.02;56.38;99260.56;5065874;27;45801;-59
2023/01/18 06:55:55;;;;;;;;;28.75;25.50;;;;;5.07;55.49;99264.19;5093372;27;45393;-60
2023/01/18 06:58:21;;;;;;;;;27.25;22.25;;;;;5.11;55.16;99262.50;5092493;27;45422;-60
2023/01/18 07:00:46;;;;;;;;;24.00;19.75;;;;;5.15;55.72;99273.22;5093358;27;46228;-60
2023/01/18 07:03:12;;;;;;;;;24.25;19.00;;;;;5.20;54.31;99280.38;5088123;27;45989;-59
2023/01/18 07:05:37;;;;;;;;;17.50;16.75;;;;;5.23;55.12;99275.16;5072824;27;45973;-58
2023/01/18 07:08:03;;;;;;;;;34.25;27.75;;;;;5.28;55.39;99278.78;5093689;27;45451;-60
2023/01/18 07:10:28;;;;;;;;;17.50;15.50;;;;;5.29;54.51;99281.47;5092786;27;46691;-61
2023/01/18 07:12:54;;;;;;;;;17.50;16.50;;;;;5.25;54.41;99276.09;5094512;27;45537;-60
2023/01/18 07:15:19;;;;;;;;;19.00;17.50;;;;;5.28;54.03;99289.38;5094802;27;51643;-60
2023/01/18 07:17:44;;;;;;;;;17.75;15.50;;;;;5.21;54.15;99291.00;5094486;27;45341;-59
2023/01/18 07:20:14;;;;;;;;;18.00;17.25;;;;;5.13;54.23;99276.69;5092212;27;46419;-60
2023/01/18 07:22:39;;;;;;;;;28.00;20.25;;;;;5.21;54.81;99295.41;5092883;27;45457;-58
2023/01/18 07:25:05;;;;;;;;;27.00;24.75;;;;;5.15;54.94;99282.94;5091014;27;47594;-60
2023/01/18 07:27:30;;;;;;;;;20.00;19.00;;;;;5.24;53.87;99306.06;5093714;27;45443;-60
2023/01/18 07:29:56;;;;;;;;;26.25;22.75;;;;;5.25;53.99;99313.19;5088583;27;59557;-59
2023/01/18 07:32:21;;;;;;;;;17.50;15.00;;;;;5.24;54.99;99317.56;5091508;27;46603;-60
2023/01/18 07:34:48;;;;;;;;;20.75;19.00;;;;;5.29;54.07;99329.16;5092622;27;45455;-60
2023/01/18 07:37:13;;;;;;;;;21.25;18.00;;;;;4.59;54.04;99206.56;5089861;27;45505;-59
2023/01/18 07:39:38;;;;;;;;;31.00;24.00;;;;;5.34;53.64;99322.19;5088098;27;63391;-60
2023/01/18 07:42:04;;;;;;;;;28.00;22.50;;;;;5.40;54.22;99325.88;5094101;27;45274;-60
2023/01/18 07:44:29;;;;;;;;;23.25;20.50;;;;;5.39;54.13;99329.38;5094516;27;45393;-61
2023/01/18 07:46:55;;;;;;;;;19.50;18.00;;;;;5.40;54.08;99336.47;5088562;27;45479;-60
2023/01/18 07:49:20;;;;;;;;;22.50;17.00;;;;;5.29;53.69;99333.56;5093601;27;46006;-59
2023/01/18 07:51:45;;;;;;;;;20.25;18.00;;;;;5.37;54.17;99360.25;5091437;27;45549;-59
2023/01/18 07:54:11;;;;;;;;;20.00;19.75;;;;;5.33;53.76;99361.94;5089148;27;45571;-61
2023/01/18 07:56:37;;;;;;;;;17.00;17.00;;;;;5.30;54.39;99373.31;5087520;27;45346;-61
2023/01/18 07:59:03;;;;;;;;;22.25;18.50;;;;;5.30;54.45;99364.50;5072715;27;47676;-60
2023/01/18 08:01:29;;;;;;;;;21.75;17.75;;;;;5.21;54.24;99341.31;5070360;27;45540;-62
2023/01/18 08:03:54;;;;;;;;;23.50;19.50;;;;;5.34;54.03;99369.00;5088773;27;45370;-60
2023/01/18 08:06:23;;;;;;;;;20.25;16.50;;;;;5.34;54.59;99371.63;5092643;27;45521;-61
2023/01/18 08:08:49;;;;;;;;;18.75;16.25;;;;;5.33;53.94;99373.41;5082956;27;46456;-61
2023/01/18 08:11:15;;;;;;;;;18.25;13.75;;;;;5.37;54.25;99378.78;5095940;27;45395;-59
2023/01/18 08:13:40;;;;;;;;;18.50;17.75;;;;;5.37;54.01;99376.13;5088963;27;45544;-60
2023/01/18 08:16:09;;;;;;;;;19.50;18.00;;;;;5.39;53.88;99377.06;5093613;27;45358;-59
2023/01/18 08:18:35;;;;;;;;;21.00;17.00;;;;;5.12;53.89;99338.44;5098795;27;46206;-59
2023/01/18 08:21:00;;;;;;;;;18.75;16.00;;;;;5.34;53.58;99385.75;5098102;27;45322;-62
2023/01/18 08:23:26;;;;;;;;;18.50;16.00;;;;;5.29;53.57;99387.41;5076059;27;46278;-61
2023/01/18 08:25:51;;;;;;;;;21.00;17.75;;;;;5.24;53.85;99381.09;5087731;27;45426;-60
2023/01/18 08:28:17;;;;;;;;;21.50;21.25;;;;;5.32;53.81;99395.44;5092548;27;45439;-60
2023/01/18 08:30:45;;;;;;;;;26.00;21.75;;;;;5.08;53.46;99357.72;5093479;27;45422;-61
2023/01/18 08:33:10;;;;;;;;;21.50;20.25;;;;;5.23;54.11;99386.34;5092701;27;45691;-61
2023/01/18 08:35:44;;;;;;;;;36.50;22.00;;;;;5.35;54.32;99402.56;5101320;27;45639;-60
2023/01/18 08:38:10;;;;;;;;;26.50;24.50;;;;;5.39;54.30;99403.53;5114969;27;46668;-60
2023/01/18 08:40:36;;;;;;;;;29.25;19.00;;;;;5.35;53.78;99403.47;5112544;27;45377;-62
2023/01/18 08:43:03;;;;;;;;;23.00;20.00;;;;;5.32;54.62;99398.06;5097211;27;45529;-60
2023/01/18 08:45:29;;;;;;;;;20.75;19.25;;;;;5.38;54.28;99407.03;5087421;27;45544;-59
2023/01/18 08:48:03;;;;;;;;;31.50;19.50;;;;;5.34;54.25;99401.66;5087647;27;45591;-61
2023/01/18 08:50:30;;;;;;;;;29.25;23.50;;;;;5.44;55.15;99421.31;5092988;27;45483;-61
2023/01/18 08:52:58;;;;;;;;;23.50;21.25;;;;;5.48;54.33;99425.88;5096968;27;45552;-63
2023/01/18 08:55:25;;;;;;;;;26.25;23.50;;;;;5.29;54.32;99390.06;5095537;27;45567;-62
2023/01/18 08:57:53;;;;;;;;;27.50;22.75;;;;;5.36;54.26;99407.00;5098040;27;47010;-61
2023/01/18 09:00:19;;;;;;;;;24.75;19.75;;;;;5.33;53.56;99406.94;5090542;27;45532;-61
2023/01/18 09:02:47;;;;;;;;;49.50;37.25;;;;;5.44;54.57;99436.34;5092404;27;45614;-61
2023/01/18 09:05:12;;;;;;;;;28.25;22.25;;;;;5.42;54.58;99446.00;5093128;27;45686;-64
2023/01/18 09:07:37;;;;;;;;;22.25;21.75;;;;;5.47;54.57;99453.19;5090131;27;46413;-63
2023/01/18 09:10:03;;;;;;;;;34.00;23.75;;;;;5.48;54.47;99452.34;5069163;27;45468;-62
2023/01/18 09:12:29;;;;;;;;;21.00;18.25;;;;;5.52;54.57;99458.63;5084497;27;45518;-61
2023/01/18 09:14:54;;;;;;;;;21.00;19.75;;;;;5.56;54.04;99468.44;5078311;27;45568;-63
2023/01/18 09:17:20;;;;;;;;;28.50;21.75;;;;;5.57;54.01;99482.59;5069730;27;52200;-62
2023/01/18 09:19:45;;;;;;;;;32.75;24.25;;;;;5.59;54.51;99475.56;5082996;27;45344;-60
2023/01/18 09:22:11;;;;;;;;;26.00;22.75;;;;;5.65;54.40;99473.09;5072709;27;45457;-61
2023/01/18 09:24:36;;;;;;;;;31.75;24.25;;;;;5.70;54.34;99485.56;5074513;27;45454;-60
2023/01/18 09:27:03;;;;;;;;;22.50;20.00;;;;;5.57;53.88;99461.38;5076240;27;45747;-60
2023/01/18 09:29:29;;;;;;;;;19.75;16.25;;;;;5.64;53.58;99498.69;5076996;27;45585;-60
2023/01/18 09:31:55;;;;;;;;;24.50;21.00;;;;;5.57;53.61;99490.53;5071275;27;45420;-61
2023/01/18 09:34:20;;;;;;;;;19.25;18.00;;;;;5.07;53.48;99408.91;5074111;27;45405;-62
2023/01/18 09:36:50;;;;;;;;;25.25;17.75;;;;;5.53;53.36;99481.63;5070463;27;45593;-61
2023/01/18 09:39:15;;;;;;;;;18.00;16.25;;;;;5.60;53.86;99503.88;5060468;27;45435;-60
2023/01/18 09:41:45;;;;;;;;;24.75;19.25;;;;;5.60;53.11;99504.75;5074335;27;45530;-59
2023/01/18 09:44:40;;;;;;;;;18.75;18.75;;;;;5.63;53.16;99507.50;5055451;27;46073;-63
2023/01/18 09:47:42;;;;;;;;;18.25;15.25;;;;;5.58;52.54;99513.53;5053147;28;46279;-63
2023/01/18 09:50:16;;;;;;;;;20.50;17.75;;;;;5.55;52.76;99524.94;5029396;27;45828;-62
2023/01/18 09:52:53;;;;;;;;;22.75;17.50;;;;;5.54;52.88;99533.72;5072841;27;45660;-61
2023/01/18 09:55:32;;;;;;;;;14.75;13.50;;;;;5.44;53.26;99524.63;5067640;27;45593;-63
2023/01/18 09:58:29;;;;;;;;;17.75;17.75;;;;;5.53;53.39;99535.50;5069424;27;47141;-62
2023/01/18 10:01:01;;;;;;;;;21.50;17.25;;;;;5.59;53.40;99536.50;5071047;27;45588;-59
2023/01/18 10:03:58;;;;;;;;;21.25;20.50;;;;;5.61;52.72;99537.44;5059821;27;45442;-62
2023/01/18 10:06:35;;;;;;;;;24.00;17.75;;;;;5.64;53.37;99542.81;5054646;27;45707;-61
2023/01/18 10:09:05;;;;;;;;;19.00;14.25;;;;;5.61;53.32;99535.69;5071757;27;45520;-60
2023/01/18 10:11:44;;;;;;;;;22.75;20.00;;;;;5.70;52.98;99549.19;5068360;27;45570;-62
2023/01/18 10:14:18;;;;;;;;;24.00;20.50;;;;;5.62;53.17;99524.22;5090353;27;45508;-61
2023/01/18 10:16:52;;;;;;;;;17.75;12.00;;;;;5.77;53.18;99541.41;5093498;27;45393;-59
2023/01/18 10:19:27;;;;;;;;;14.25;12.25;;;;;5.70;52.98;99546.53;5092074;27;45557;-62
2023/01/18 10:22:25;;;;;;;;;17.50;13.50;;;;;5.68;53.08;99553.53;5095070;27;45607;-60
2023/01/18 10:24:59;;;;;;;;;12.25;10.50;;;;;5.72;52.98;99547.50;5088146;27;45439;-61
2023/01/18 10:27:36;;;;;;;;;16.75;13.75;;;;;5.64;53.28;99530.50;5085223;27;45460;-61
2023/01/18 10:30:04;;;;;;;;;8.25;7.00;;;;;5.80;53.27;99560.03;5093969;27;45622;-61
2023/01/18 10:32:35;;;;;;;;;13.50;11.00;;;;;5.88;53.16;99564.66;5087916;27;45671;-63
2023/01/18 10:35:14;;;;;;;;;14.50;13.00;;;;;5.18;53.15;99431.28;5086421;27;45675;-61
2023/01/18 10:37:45;;;;;;;;;11.75;10.25;;;;;5.99;52.68;99569.38;5066989;27;45594;-61
2023/01/18 10:40:13;;;;;;;;;17.75;9.50;;;;;5.92;52.86;99552.38;5092935;27;46111;-60
2023/01/18 10:42:44;;;;;;;;;11.00;9.50;;;;;5.98;53.12;99555.22;5073610;27;45406;-60
2023/01/18 10:45:21;;;;;;;;;13.25;9.25;;;;;6.14;53.41;99567.13;5085986;27;45414;-60
2023/01/18 10:47:51;;;;;;;;;11.75;10.50;;;;;5.99;53.06;99519.91;5090813;27;45445;-59
2023/01/18 10:50:21;;;;;;;;;10.50;9.50;;;;;6.33;52.49;99568.47;5087660;27;46304;-62
2023/01/18 10:52:48;;;;;;;;;11.00;9.00;;;;;6.43;52.17;99572.25;5093110;27;45413;-61
2023/01/18 10:55:18;;;;;;;;;14.50;13.50;;;;;6.41;52.51;99558.06;5090260;27;45543;-62
2023/01/18 10:57:50;;;;;;;;;17.75;12.75;;;;;6.49;52.25;99564.44;5076243;27;45630;-62
2023/01/18 11:00:31;;;;;;;;;14.00;11.75;;;;;6.48;52.28;99567.94;5085640;27;46292;-60
2023/01/18 11:02:58;;;;;;;;;8.00;8.00;;;;;6.41;52.22;99553.63;5087080;27;45458;-62
2023/01/18 11:05:37;;;;;;;;;19.00;15.25;;;;;6.47;52.55;99560.84;5090732;27;45480;-62
2023/01/18 11:08:09;;;;;;;;;13.00;13.00;;;;;6.54;52.73;99556.59;5088421;27;45450;-62
2023/01/18 11:10:36;;;;;;;;;14.75;9.75;;;;;6.57;52.54;99559.31;5096985;27;45276;-61
2023/01/18 11:13:02;;;;;;;;;13.00;11.00;;;;;6.55;52.78;99555.72;5076512;27;45551;-61
2023/01/18 11:15:28;;;;;;;;;12.25;9.00;;;;;6.43;52.99;99528.06;5071004;28;45757;-64
2023/01/18 11:17:59;;;;;;;;;8.75;8.75;;;;;6.67;52.79;99560.44;5072672;27;45543;-62
2023/01/18 11:20:54;;;;;;;;;13.75;12.00;;;;;6.73;52.59;99541.97;5073670;28;46044;-62
2023/01/18 11:23:20;;;;;;;;;15.00;9.25;;;;;6.80;52.12;99544.81;5058951;28;45598;-63
2023/01/18 11:26:04;;;;;;;;;13.50;9.75;;;;;6.83;52.31;99538.69;5074750;28;46062;-63
2023/01/18 11:28:54;;;;;;;;;16.00;12.75;;;;;6.89;52.40;99525.50;5064611;28;45327;-63
2023/01/18 11:31:22;;;;;;;;;9.25;9.25;;;;;6.99;52.14;99526.59;5073019;28;46373;-62
2023/01/18 11:33:54;;;;;;;;;16.50;12.25;;;;;7.10;52.47;99540.13;5074242;28;45456;-62
2023/01/18 11:36:36;;;;;;;;;10.50;9.00;;;;;7.17;51.71;99534.94;5073852;28;45443;-63
2023/01/18 11:39:24;;;;;;;;;8.00;8.00;;;;;7.19;51.01;99534.97;5072872;28;45264;-61
2023/01/18 11:41:51;;;;;;;;;12.25;9.00;;;;;7.17;51.56;99529.63;5079145;28;46333;-62
2023/01/18 11:44:28;;;;;;;;;9.00;7.75;;;;;7.16;50.87;99525.19;5077614;28;46042;-62
2023/01/18 11:46:58;;;;;;;;;3.50;0.00;;;;;7.27;51.31;99533.38;5054718;28;45664;-63
2023/01/18 11:49:58;;;;;;;;;9.75;8.25;;;;;7.36;51.03;99532.69;5058441;28;45276;-61
2023/01/18 11:52:33;;;;;;;;;11.00;9.25;;;;;7.45;50.88;99526.63;5074571;28;46300;-62
2023/01/18 11:55:04;;;;;;;;;9.25;7.50;;;;;7.43;50.89;99513.31;5074035;28;45862;-62
2023/01/18 11:57:29;;;;;;;;;11.50;10.75;;;;;7.54;50.43;99530.38;5075933;28;45578;-62
2023/01/18 11:59:55;;;;;;;;;10.50;8.50;;;;;7.56;50.94;99536.59;5076153;28;48056;-62
2023/01/18 12:02:26;;;;;;;;;17.00;13.75;;;;;7.55;50.83;99537.44;5072721;28;45863;-63
2023/01/18 12:05:27;;;;;;;;;15.75;14.25;;;;;7.61;50.33;99528.72;5075698;28;45370;-63
2023/01/18 12:08:37;;;;;;;;;11.00;9.25;;;;;7.62;50.94;99538.47;5088526;27;45024;-61
2023/01/18 12:11:20;;;;;;;;;8.00;7.50;;;;;7.63;49.56;99540.28;5061527;28;45217;-60
2023/01/18 12:13:58;;;;;;;;;8.75;8.25;;;;;7.59;49.51;99537.50;5083282;28;45545;-59